Time;durP1;ratioP1;P1;durP2;ratioP2;P2;SDS_P1;SDS_P2;PMS_P1;PMS_P2;Temp;Humidity;BMP_temperature;BMP_pressure;BME280_temperature;BME280_humidity;BME280_pressure;Samples;Min_cycle;Max_cycle;Signal;HPM_P1;HPM_P2
2023/03/18 00:01:02;;;;;;;58.92;21.90;;;;;;;;;;6269241;28;20044;-62
2023/03/18 00:04:03;;;;;;;;;;;;;;;;;;6264593;28;20041;-63
2023/03/18 00:07:04;;;;;;;52.03;20.45;;;;;;;;;;6264173;28;19978;-63
2023/03/18 00:10:06;;;;;;;52.05;19.75;;;;;;;;;;6264143;28;20513;-61
2023/03/18 00:13:07;;;;;;;51.38;20.65;;;;;;;;;;6263672;28;20514;-63
2023/03/18 00:16:10;;;;;;;49.25;20.33;;;;;;;;;;6265854;28;20600;-62
2023/03/18 00:19:11;;;;;;;57.17;22.33;;;;;;;;;;6263774;28;20048;-63
2023/03/18 00:22:13;;;;;;;49.20;21.27;;;;;;;;;;6263070;28;20072;-62
2023/03/18 00:25:14;;;;;;;50.50;20.23;;;;;;;;;;6262247;28;20072;-62
2023/03/18 00:28:15;;;;;;;49.13;19.75;;;;;;;;;;6264343;28;20779;-62
2023/03/18 00:31:16;;;;;;;47.22;18.52;;;;;;;;;;6263383;28;20041;-61
2023/03/18 00:34:17;;;;;;;49.95;20.40;;;;;;;;;;6264290;28;20558;-62
2023/03/18 00:37:29;;;;;;;47.75;19.58;;;;;;;;;;6262268;28;20197;-61
2023/03/18 00:40:41;;;;;;;46.83;19.05;;;;;;;;;;6262805;28;20044;-62
2023/03/18 00:43:53;;;;;;;45.28;19.00;;;;;;;;;;6264630;28;20053;-62
2023/03/18 00:46:53;;;;;;;48.42;18.63;;;;;;;;;;6261827;28;20048;-63
2023/03/18 00:49:54;;;;;;;49.40;19.35;;;;;;;;;;6262215;28;20080;-61
2023/03/18 00:52:55;;;;;;;40.38;18.10;;;;;;;;;;6261167;28;20056;-62
2023/03/18 00:55:55;;;;;;;41.05;19.80;;;;;;;;;;6264090;28;20542;-62
2023/03/18 00:58:57;;;;;;;44.90;17.35;;;;;;;;;;6267378;28;20045;-62
2023/03/18 01:01:57;;;;;;;49.93;20.27;;;;;;;;;;6262736;28;20045;-63
2023/03/18 01:04:58;;;;;;;43.35;20.05;;;;;;;;;;6261167;28;20321;-62
2023/03/18 01:07:59;;;;;;;49.17;21.50;;;;;;;;;;6260823;28;20468;-63
2023/03/18 01:10:59;;;;;;;45.63;18.00;;;;;;;;;;6262582;28;20056;-63
2023/03/18 01:14:00;;;;;;;51.70;20.52;;;;;;;;;;6263535;28;20068;-62
2023/03/18 01:17:02;;;;;;;44.53;17.70;;;;;;;;;;6268511;28;20785;-62
2023/03/18 01:20:03;;;;;;;39.30;17.95;;;;;;;;;;6263328;28;20041;-61
2023/03/18 01:23:05;;;;;;;43.42;19.20;;;;;;;;;;6265339;28;20048;-62
2023/03/18 01:26:06;;;;;;;50.22;20.13;;;;;;;;;;6263183;28;20528;-61
2023/03/18 01:29:06;;;;;;;44.47;18.55;;;;;;;;;;6261216;28;20064;-62
2023/03/18 01:32:08;;;;;;;46.25;18.27;;;;;;;;;;6259862;28;20041;-62
2023/03/18 01:35:11;;;;;;;41.08;16.13;;;;;;;;;;6261433;28;20041;-63
2023/03/18 01:38:15;;;;;;;42.58;16.55;;;;;;;;;;6267919;28;20051;-63
2023/03/18 01:41:16;;;;;;;47.33;17.95;;;;;;;;;;6263040;28;20045;-63
2023/03/18 01:44:20;;;;;;;43.85;17.40;;;;;;;;;;6261222;28;20052;-62
2023/03/18 01:47:20;;;;;;;40.00;17.27;;;;;;;;;;6263799;28;20045;-62
2023/03/18 01:50:26;;;;;;;45.78;18.40;;;;;;;;;;6269280;28;20552;-62
2023/03/18 01:53:34;;;;;;;42.83;17.90;;;;;;;;;;6261038;28;20467;-61
2023/03/18 01:56:39;;;;;;;45.53;17.17;;;;;;;;;;6259235;28;20056;-62
2023/03/18 01:59:41;;;;;;;45.22;17.73;;;;;;;;;;6266576;28;20052;-62
2023/03/18 02:02:44;;;;;;;44.78;18.92;;;;;;;;;;6261942;28;20051;-63
2023/03/18 02:05:45;;;;;;;51.53;19.50;;;;;;;;;;6266102;28;20056;-63
2023/03/18 02:08:46;;;;;;;47.88;19.23;;;;;;;;;;6266666;28;20143;-62
2023/03/18 02:11:48;;;;;;;47.42;19.17;;;;;;;;;;6260401;28;20114;-62
2023/03/18 02:14:50;;;;;;;;;;;;;;;;;;6261250;28;20049;-64
2023/03/18 02:18:04;;;;;;;45.47;18.02;;;;;;;;;;6267327;28;20476;-62
2023/03/18 02:21:42;;;;;;;44.10;19.45;;;;;;;;;;6261192;28;20099;-62
2023/03/18 02:25:14;;;;;;;47.55;20.88;;;;;;;;;;6261059;28;20435;-61
2023/03/18 02:28:23;;;;;;;50.03;21.23;;;;;;;;;;6254776;28;20041;-62
2023/03/18 02:31:24;;;;;;;47.00;20.50;;;;;;;;;;6266775;28;20051;-63
2023/03/18 02:34:28;;;;;;;49.03;19.97;;;;;;;;;;6261276;28;20044;-62
2023/03/18 02:37:28;;;;;;;41.05;19.10;;;;;;;;;;6261621;28;20672;-62
2023/03/18 02:40:32;;;;;;;48.15;19.58;;;;;;;;;;6265760;28;20045;-62
2023/03/18 02:43:32;;;;;;;47.78;20.23;;;;;;;;;;6259551;28;20048;-63
2023/03/18 02:46:54;;;;;;;48.05;19.77;;;;;;;;;;6261314;28;20047;-63
2023/03/18 02:49:55;;;;;;;49.90;20.67;;;;;;;;;;6258679;28;20060;-63
2023/03/18 02:52:56;;;;;;;54.70;21.63;;;;;;;;;;6258188;28;20521;-62
2023/03/18 02:55:57;;;;;;;51.35;21.25;;;;;;;;;;6259511;28;20044;-63
2023/03/18 02:58:57;;;;;;;53.50;20.42;;;;;;;;;;6260958;28;20044;-62
2023/03/18 03:01:58;;;;;;;50.10;20.25;;;;;;;;;;6257561;28;20049;-62
2023/03/18 03:04:59;;;;;;;57.20;21.67;;;;;;;;;;6260308;28;20406;-62
2023/03/18 03:08:00;;;;;;;46.60;21.08;;;;;;;;;;6257848;28;20055;-63
2023/03/18 03:11:01;;;;;;;42.72;17.33;;;;;;;;;;6259088;28;20477;-61
2023/03/18 03:14:02;;;;;;;36.65;16.17;;;;;;;;;;6257041;28;20057;-61
2023/03/18 03:17:03;;;;;;;41.47;17.38;;;;;;;;;;6257786;28;20527;-62
2023/03/18 03:20:07;;;;;;;39.35;18.17;;;;;;;;;;6259485;28;20041;-63
2023/03/18 03:23:11;;;;;;;45.90;19.50;;;;;;;;;;6259925;28;20098;-62
2023/03/18 03:26:12;;;;;;;49.42;19.35;;;;;;;;;;6261978;28;20068;-61
2023/03/18 03:29:13;;;;;;;44.22;18.67;;;;;;;;;;6266924;28;20053;-61
2023/03/18 03:32:13;;;;;;;42.85;19.38;;;;;;;;;;6264217;28;20060;-61
2023/03/18 03:35:17;;;;;;;38.88;16.90;;;;;;;;;;6258566;28;20049;-62
2023/03/18 03:38:18;;;;;;;41.97;19.27;;;;;;;;;;6257856;28;20056;-61
2023/03/18 03:41:18;;;;;;;40.78;18.10;;;;;;;;;;6260695;28;20053;-62
2023/03/18 03:44:19;;;;;;;37.70;16.52;;;;;;;;;;6261325;28;20045;-61
2023/03/18 03:47:20;;;;;;;39.80;16.35;;;;;;;;;;6265854;28;20041;-62
2023/03/18 03:50:21;;;;;;;38.95;16.60;;;;;;;;;;6263053;28;20045;-61
2023/03/18 03:53:22;;;;;;;40.15;17.02;;;;;;;;;;6257459;28;20423;-61
2023/03/18 03:56:22;;;;;;;38.88;17.75;;;;;;;;;;6257542;28;20052;-62
2023/03/18 03:59:23;;;;;;;40.30;16.85;;;;;;;;;;6260795;28;20056;-61
2023/03/18 04:02:25;;;;;;;37.28;16.20;;;;;;;;;;6254660;28;20052;-61
2023/03/18 04:05:27;;;;;;;40.70;18.92;;;;;;;;;;6262981;28;20094;-62
2023/03/18 04:08:27;;;;;;;37.70;17.20;;;;;;;;;;6259725;28;20393;-62
2023/03/18 04:11:28;;;;;;;36.95;17.33;;;;;;;;;;6259945;28;20552;-62
2023/03/18 04:14:29;;;;;;;41.63;17.02;;;;;;;;;;6267066;28;20049;-62
2023/03/18 04:17:30;;;;;;;37.53;16.38;;;;;;;;;;6259442;28;20049;-61
2023/03/18 04:20:30;;;;;;;34.63;15.55;;;;;;;;;;6258687;28;20103;-62
2023/03/18 04:23:32;;;;;;;37.42;16.80;;;;;;;;;;6257355;28;20045;-62
2023/03/18 04:26:32;;;;;;;38.42;16.27;;;;;;;;;;6257801;28;20045;-61
2023/03/18 04:29:33;;;;;;;36.20;16.38;;;;;;;;;;6259126;28;20121;-62
2023/03/18 04:32:34;;;;;;;35.28;16.35;;;;;;;;;;6252925;28;20045;-62
2023/03/18 04:35:35;;;;;;;31.27;15.65;;;;;;;;;;6259106;28;20105;-62
2023/03/18 04:38:35;;;;;;;37.28;17.00;;;;;;;;;;6261735;28;20612;-63
2023/03/18 04:41:36;;;;;;;37.08;17.10;;;;;;;;;;6260241;28;20064;-62
2023/03/18 04:44:37;;;;;;;38.88;16.88;;;;;;;;;;6258136;28;20029;-61
2023/03/18 04:47:39;;;;;;;36.92;16.50;;;;;;;;;;6271032;28;20049;-61
2023/03/18 04:50:39;;;;;;;46.97;18.60;;;;;;;;;;6263979;28;20063;-62
2023/03/18 04:53:40;;;;;;;44.17;19.88;;;;;;;;;;6261375;28;20041;-61
2023/03/18 04:56:42;;;;;;;44.47;17.95;;;;;;;;;;6261875;28;20497;-61
2023/03/18 04:59:44;;;;;;;36.88;16.92;;;;;;;;;;6262797;28;20057;-62
2023/03/18 05:02:44;;;;;;;38.90;16.30;;;;;;;;;;6263234;28;20052;-62
2023/03/18 05:05:45;;;;;;;30.73;16.08;;;;;;;;;;6262476;28;20140;-62
2023/03/18 05:08:46;;;;;;;37.60;16.65;;;;;;;;;;6258049;28;20106;-62
2023/03/18 05:11:47;;;;;;;35.72;16.73;;;;;;;;;;6267282;28;20045;-62
2023/03/18 05:14:47;;;;;;;36.38;17.20;;;;;;;;;;6263978;28;20477;-62
2023/03/18 05:17:48;;;;;;;39.30;16.73;;;;;;;;;;6262066;28;20076;-61
2023/03/18 05:20:48;;;;;;;42.50;16.27;;;;;;;;;;6263239;28;20049;-61
2023/03/18 05:23:49;;;;;;;37.42;16.83;;;;;;;;;;6259914;28;20041;-61
2023/03/18 05:26:49;;;;;;;38.72;17.40;;;;;;;;;;6261551;28;20049;-62
2023/03/18 05:29:50;;;;;;;38.03;16.23;;;;;;;;;;6261479;28;20157;-62
2023/03/18 05:32:51;;;;;;;37.53;15.88;;;;;;;;;;6261913;28;20537;-62
2023/03/18 05:35:52;;;;;;;36.67;17.03;;;;;;;;;;6262125;28;20051;-62
2023/03/18 05:38:52;;;;;;;30.00;14.70;;;;;;;;;;6262202;28;20045;-62
2023/03/18 05:41:53;;;;;;;37.63;16.70;;;;;;;;;;6258875;28;20608;-62
2023/03/18 05:44:55;;;;;;;36.13;15.48;;;;;;;;;;6260531;28;20515;-62
2023/03/18 05:47:56;;;;;;;34.03;15.15;;;;;;;;;;6258980;28;20052;-61
2023/03/18 05:50:57;;;;;;;35.33;15.20;;;;;;;;;;6261436;28;20477;-62
2023/03/18 05:53:58;;;;;;;30.98;14.90;;;;;;;;;;6261930;28;20049;-60
2023/03/18 05:56:59;;;;;;;34.80;15.60;;;;;;;;;;6260732;28;20049;-61
2023/03/18 05:59:59;;;;;;;41.90;16.25;;;;;;;;;;6260724;28;20052;-60
2023/03/18 06:03:00;;;;;;;33.85;16.30;;;;;;;;;;6259673;28;20503;-61
2023/03/18 06:06:01;;;;;;;40.72;16.83;;;;;;;;;;6260593;28;20476;-61
2023/03/18 06:09:02;;;;;;;37.72;16.88;;;;;;;;;;6260863;28;20059;-62
2023/03/18 06:12:04;;;;;;;41.47;17.02;;;;;;;;;;6259172;28;20044;-61
2023/03/18 06:15:09;;;;;;;48.15;18.00;;;;;;;;;;6260644;28;20076;-60
2023/03/18 06:18:10;;;;;;;41.08;17.90;;;;;;;;;;6260599;28;20037;-60
2023/03/18 06:21:11;;;;;;;37.83;17.35;;;;;;;;;;6260620;28;20083;-61
2023/03/18 06:24:14;;;;;;;;;;;;;;;;;;6253821;28;20561;-59
2023/03/18 06:27:14;;;;;;;44.35;18.70;;;;;;;;;;6264262;28;19920;-62
2023/03/18 06:30:16;;;;;;;49.45;19.67;;;;;;;;;;6259374;28;20608;-59
2023/03/18 06:33:17;;;;;;;46.17;19.87;;;;;;;;;;6260209;28;20029;-61
2023/03/18 06:36:20;;;;;;;53.38;20.92;;;;;;;;;;6260479;28;20399;-61
2023/03/18 06:39:20;;;;;;;51.75;21.45;;;;;;;;;;6265110;28;20128;-59
2023/03/18 06:42:21;;;;;;;55.42;21.95;;;;;;;;;;6261508;28;20053;-60
2023/03/18 06:45:22;;;;;;;47.97;20.80;;;;;;;;;;6259957;28;20060;-62
2023/03/18 06:48:23;;;;;;;53.22;23.33;;;;;;;;;;6260066;28;20412;-61
2023/03/18 06:51:24;;;;;;;82.15;32.58;;;;;;;;;;6251443;28;20048;-62
2023/03/18 06:54:25;;;;;;;70.90;28.48;;;;;;;;;;6263477;28;20476;-62
2023/03/18 06:57:26;;;;;;;73.38;29.27;;;;;;;;;;6259886;28;20148;-62
2023/03/18 07:00:27;;;;;;;68.22;27.35;;;;;;;;;;6260844;28;20646;-62
2023/03/18 07:03:27;;;;;;;87.32;32.70;;;;;;;;;;6260328;28;20754;-62
2023/03/18 07:06:29;;;;;;;48.05;19.80;;;;;;;;;;6258218;28;20453;-62
2023/03/18 07:09:30;;;;;;;51.28;19.27;;;;;;;;;;6265164;28;20049;-61
2023/03/18 07:12:31;;;;;;;46.70;21.05;;;;;;;;;;6250385;28;20054;-61
2023/03/18 07:15:32;;;;;;;49.55;21.08;;;;;;;;;;6260883;28;20052;-62
2023/03/18 07:18:33;;;;;;;55.50;23.95;;;;;;;;;;6259002;28;20057;-62
2023/03/18 07:21:34;;;;;;;68.90;25.45;;;;;;;;;;6260203;28;20053;-61
2023/03/18 07:24:36;;;;;;;97.05;35.03;;;;;;;;;;6259924;28;20037;-62
2023/03/18 07:27:37;;;;;;;76.78;29.75;;;;;;;;;;6259483;28;20094;-62
2023/03/18 07:30:38;;;;;;;75.93;30.60;;;;;;;;;;6259684;28;20045;-61
2023/03/18 07:33:39;;;;;;;58.08;24.65;;;;;;;;;;6257854;28;20130;-61
2023/03/18 07:36:40;;;;;;;51.40;23.25;;;;;;;;;;6255700;28;20052;-62
2023/03/18 07:39:42;;;;;;;56.58;24.27;;;;;;;;;;6262159;28;20052;-62
2023/03/18 07:42:43;;;;;;;52.63;22.98;;;;;;;;;;6255321;28;20045;-61
2023/03/18 07:45:43;;;;;;;58.30;23.83;;;;;;;;;;6263198;28;20044;-62
2023/03/18 07:48:45;;;;;;;61.65;24.85;;;;;;;;;;6259602;28;20102;-61
2023/03/18 07:51:46;;;;;;;61.97;26.40;;;;;;;;;;6260748;28;20041;-61
2023/03/18 07:54:46;;;;;;;52.97;24.60;;;;;;;;;;6264371;28;20324;-61
2023/03/18 07:57:47;;;;;;;54.70;24.05;;;;;;;;;;6264890;28;20045;-62
2023/03/18 08:00:48;;;;;;;44.67;21.37;;;;;;;;;;6256781;28;20132;-61
2023/03/18 08:03:49;;;;;;;44.10;21.13;;;;;;;;;;6258225;28;20485;-62
2023/03/18 08:06:50;;;;;;;53.55;21.02;;;;;;;;;;6258127;28;20047;-61
2023/03/18 08:09:50;;;;;;;44.80;20.10;;;;;;;;;;6257240;28;21058;-61
2023/03/18 08:12:51;;;;;;;50.28;20.88;;;;;;;;;;6257714;28;20041;-62
2023/03/18 08:15:52;;;;;;;51.45;22.77;;;;;;;;;;6258842;28;20048;-62
2023/03/18 08:18:53;;;;;;;48.08;20.17;;;;;;;;;;6259010;28;20041;-62
2023/03/18 08:21:54;;;;;;;41.60;19.05;;;;;;;;;;6257724;28;20534;-62
2023/03/18 08:24:56;;;;;;;40.05;18.58;;;;;;;;;;6262755;28;20055;-61
2023/03/18 08:27:57;;;;;;;39.78;18.98;;;;;;;;;;6264779;28;20055;-62
2023/03/18 08:30:58;;;;;;;47.75;26.02;;;;;;;;;;6262535;28;20037;-62
2023/03/18 08:33:59;;;;;;;47.58;20.33;;;;;;;;;;6267947;28;20522;-61
2023/03/18 08:37:00;;;;;;;45.05;18.10;;;;;;;;;;6265634;28;20049;-61
2023/03/18 08:40:01;;;;;;;40.72;19.25;;;;;;;;;;6265430;28;20122;-62
2023/03/18 08:43:01;;;;;;;45.53;19.60;;;;;;;;;;6267592;28;20052;-63
2023/03/18 08:46:03;;;;;;;40.03;17.20;;;;;;;;;;6265137;28;20049;-62
2023/03/18 08:49:05;;;;;;;38.60;18.08;;;;;;;;;;6269953;28;20148;-62
2023/03/18 08:52:05;;;;;;;36.88;16.52;;;;;;;;;;6260747;28;20048;-61
2023/03/18 08:55:08;;;;;;;35.78;17.38;;;;;;;;;;6263916;28;20045;-62
2023/03/18 08:58:09;;;;;;;36.28;16.38;;;;;;;;;;6263943;28;20049;-62
2023/03/18 09:01:10;;;;;;;26.98;12.43;;;;;;;;;;6260284;28;21292;-62
2023/03/18 09:04:12;;;;;;;30.30;13.40;;;;;;;;;;6262300;28;20041;-62
2023/03/18 09:07:13;;;;;;;26.52;13.52;;;;;;;;;;6263706;28;20048;-62
2023/03/18 09:10:16;;;;;;;25.83;13.15;;;;;;;;;;6266600;28;20468;-62
2023/03/18 09:13:17;;;;;;;31.08;13.00;;;;;;;;;;6261375;28;20472;-62
2023/03/18 09:16:17;;;;;;;30.27;13.50;;;;;;;;;;6262673;28;20055;-62
2023/03/18 09:19:18;;;;;;;29.17;13.35;;;;;;;;;;6260855;28;20045;-62
2023/03/18 09:22:18;;;;;;;28.85;11.65;;;;;;;;;;6260332;28;20356;-62
2023/03/18 09:25:19;;;;;;;24.13;9.98;;;;;;;;;;6262584;28;20041;-62
2023/03/18 09:28:20;;;;;;;23.35;10.98;;;;;;;;;;6262865;28;20052;-62
2023/03/18 09:31:20;;;;;;;22.27;10.60;;;;;;;;;;6265545;28;20056;-62
2023/03/18 09:34:21;;;;;;;22.65;10.88;;;;;;;;;;6261504;28;20045;-62
2023/03/18 09:37:22;;;;;;;25.80;12.13;;;;;;;;;;6263209;28;20052;-62
2023/03/18 09:40:27;;;;;;;22.92;10.82;;;;;;;;;;6260940;28;20041;-62
2023/03/18 09:43:36;;;;;;;22.75;11.85;;;;;;;;;;6258856;28;20049;-62
2023/03/18 09:46:37;;;;;;;25.95;11.20;;;;;;;;;;6266577;28;20080;-62
2023/03/18 09:49:59;;;;;;;25.42;11.68;;;;;;;;;;6266587;28;20053;-62
2023/03/18 09:53:11;;;;;;;28.48;12.80;;;;;;;;;;6259965;28;20127;-62
2023/03/18 09:56:19;;;;;;;28.05;13.85;;;;;;;;;;6259497;28;20563;-62
2023/03/18 09:59:38;;;;;;;31.58;14.23;;;;;;;;;;6259849;28;20040;-62
2023/03/18 10:02:44;;;;;;;33.90;16.52;;;;;;;;;;6264513;28;20156;-62
2023/03/18 10:05:52;;;;;;;30.90;14.05;;;;;;;;;;6261526;28;20075;-62
2023/03/18 10:09:03;;;;;;;31.70;15.57;;;;;;;;;;6261649;28;20062;-62
2023/03/18 10:12:22;;;;;;;34.45;15.15;;;;;;;;;;6268655;28;20479;-62
2023/03/18 10:15:33;;;;;;;30.73;14.25;;;;;;;;;;6265152;28;20083;-62
2023/03/18 10:18:36;;;;;;;22.52;11.77;;;;;;;;;;6267535;28;20128;-62
2023/03/18 10:21:48;;;;;;;27.70;14.77;;;;;;;;;;6260672;28;20442;-61
2023/03/18 10:25:20;;;;;;;31.45;14.10;;;;;;;;;;6259176;28;20040;-62
2023/03/18 10:28:36;;;;;;;25.23;12.00;;;;;;;;;;6270057;28;20040;-62
2023/03/18 10:31:39;;;;;;;26.35;11.90;;;;;;;;;;6259797;28;20059;-62
2023/03/18 10:34:45;;;;;;;24.75;11.85;;;;;;;;;;6264476;28;20094;-62
2023/03/18 10:37:53;;;;;;;32.45;14.55;;;;;;;;;;6260248;28;20048;-62
2023/03/18 10:40:55;;;;;;;24.88;12.35;;;;;;;;;;6262131;28;20049;-62
2023/03/18 10:43:56;;;;;;;33.30;14.77;;;;;;;;;;6264373;28;20257;-62
2023/03/18 10:47:12;;;;;;;24.95;12.98;;;;;;;;;;6260850;28;20040;-62
2023/03/18 10:50:32;;;;;;;24.50;11.27;;;;;;;;;;6258311;28;20057;-62
2023/03/18 10:53:59;;;;;;;24.33;10.88;;;;;;;;;;6259499;28;20130;-62
2023/03/18 10:57:00;;;;;;;23.23;11.30;;;;;;;;;;6232127;28;20741;-61
2023/03/18 11:00:00;;;;;;;21.30;10.90;;;;;;;;;;6256279;28;20037;-62
2023/03/18 11:03:04;;;;;;;19.52;9.55;;;;;;;;;;6260488;28;20044;-62
2023/03/18 11:06:12;;;;;;;23.33;10.77;;;;;;;;;;6258026;28;20094;-62
2023/03/18 11:09:18;;;;;;;18.70;10.35;;;;;;;;;;6255705;28;20103;-62
2023/03/18 11:12:31;;;;;;;19.80;10.00;;;;;;;;;;6259101;28;20091;-62
2023/03/18 11:15:41;;;;;;;28.25;12.15;;;;;;;;;;6258028;28;20488;-61
2023/03/18 11:18:45;;;;;;;25.60;11.90;;;;;;;;;;6258272;28;21796;-61
2023/03/18 11:21:46;;;;;;;21.95;11.02;;;;;;;;;;6259094;28;20132;-61
2023/03/18 11:25:01;;;;;;;20.90;10.63;;;;;;;;;;6257301;28;20048;-61
2023/03/18 11:28:03;;;;;;;20.00;10.43;;;;;;;;;;6256736;28;20135;-62
2023/03/18 11:31:05;;;;;;;26.25;11.65;;;;;;;;;;6259998;28;20044;-62
2023/03/18 11:34:07;;;;;;;26.30;11.65;;;;;;;;;;6266444;28;20514;-61
2023/03/18 11:37:10;;;;;;;20.52;10.23;;;;;;;;;;6257887;28;20053;-61
2023/03/18 11:40:13;;;;;;;22.40;10.55;;;;;;;;;;6265929;28;20496;-62
2023/03/18 11:43:20;;;;;;;21.23;10.93;;;;;;;;;;6260081;28;20055;-62
2023/03/18 11:46:23;;;;;;;25.88;13.75;;;;;;;;;;6259852;28;20048;-62
2023/03/18 11:49:26;;;;;;;24.40;11.95;;;;;;;;;;6256005;28;20049;-62
2023/03/18 11:52:59;;;;;;;27.67;13.25;;;;;;;;;;6258330;28;20128;-62
2023/03/18 11:55:59;;;;;;;24.50;11.27;;;;;;;;;;6229392;28;20049;-61
2023/03/18 11:59:14;;;;;;;28.75;11.93;;;;;;;;;;6264264;28;20404;-62
2023/03/18 12:02:47;;;;;;;36.75;14.52;;;;;;;;;;6263295;28;20811;-63
2023/03/18 12:06:08;;;;;;;28.05;14.43;;;;;;;;;;6264461;28;20388;-61
2023/03/18 12:09:35;;;;;;;26.25;12.85;;;;;;;;;;6263200;28;20114;-60
2023/03/18 12:12:50;;;;;;;30.00;12.77;;;;;;;;;;6269691;28;20052;-61
2023/03/18 12:16:18;;;;;;;20.73;11.48;;;;;;;;;;6260599;28;20086;-61
2023/03/18 12:19:25;;;;;;;23.60;11.60;;;;;;;;;;6269257;28;20044;-59
2023/03/18 12:22:48;;;;;;;27.13;12.27;;;;;;;;;;6260021;28;20118;-61
2023/03/18 12:26:04;;;;;;;28.38;13.05;;;;;;;;;;6263339;28;20053;-61
2023/03/18 12:29:22;;;;;;;23.13;11.30;;;;;;;;;;6265735;28;20044;-61
2023/03/18 12:32:44;;;;;;;24.58;11.07;;;;;;;;;;6259192;28;20492;-61
2023/03/18 12:36:08;;;;;;;25.92;10.82;;;;;;;;;;6263597;28;20063;-61
2023/03/18 12:39:30;;;;;;;21.90;11.80;;;;;;;;;;6271828;28;20060;-61
2023/03/18 12:42:47;;;;;;;25.70;11.95;;;;;;;;;;6265853;28;20113;-61
2023/03/18 12:45:57;;;;;;;30.77;15.55;;;;;;;;;;6261933;28;20451;-61
2023/03/18 12:49:16;;;;;;;31.45;12.75;;;;;;;;;;6266970;28;20052;-61
2023/03/18 12:52:26;;;;;;;21.38;10.15;;;;;;;;;;6271400;28;20061;-60
2023/03/18 12:55:38;;;;;;;28.33;12.32;;;;;;;;;;6264094;28;20052;-61
2023/03/18 12:58:56;;;;;;;25.40;12.13;;;;;;;;;;6269605;28;20094;-60
2023/03/18 13:02:18;;;;;;;21.70;9.93;;;;;;;;;;6269238;28;20602;-61
2023/03/18 13:05:26;;;;;;;22.92;10.50;;;;;;;;;;6269369;28;20485;-64
2023/03/18 13:09:00;;;;;;;20.52;11.13;;;;;;;;;;6263812;28;20059;-60
2023/03/18 13:12:13;;;;;;;22.05;10.63;;;;;;;;;;6247103;28;20049;-61
2023/03/18 13:15:49;;;;;;;25.80;9.80;;;;;;;;;;6260312;28;20442;-61
2023/03/18 13:18:52;;;;;;;20.83;9.40;;;;;;;;;;6247114;28;20099;-61
2023/03/18 13:22:24;;;;;;;26.23;15.30;;;;;;;;;;6260112;28;20071;-60
2023/03/18 13:25:39;;;;;;;21.08;9.80;;;;;;;;;;6259984;28;20411;-61
2023/03/18 13:29:01;;;;;;;26.63;13.30;;;;;;;;;;6258681;28;20841;-61
2023/03/18 13:32:26;;;;;;;17.52;8.70;;;;;;;;;;6259227;28;20416;-61
2023/03/18 13:36:16;;;;;;;26.65;10.10;;;;;;;;;;6260873;28;20045;-61
2023/03/18 13:39:46;;;;;;;23.02;10.32;;;;;;;;;;6255057;28;20416;-61
2023/03/18 13:42:50;;;;;;;23.02;11.82;;;;;;;;;;6258097;28;20486;-61
2023/03/18 13:45:55;;;;;;;33.88;19.45;;;;;;;;;;6255691;28;21391;-60
2023/03/18 13:48:59;;;;;;;45.75;27.08;;;;;;;;;;6259507;28;20630;-56
2023/03/18 13:52:00;;;;;;;18.42;8.32;;;;;;;;;;6260081;28;20049;-61
2023/03/18 13:55:17;;;;;;;14.05;8.38;;;;;;;;;;6257820;28;20049;-61
2023/03/18 13:58:43;;;;;;;17.77;8.73;;;;;;;;;;6256988;28;20134;-61
2023/03/18 14:01:48;;;;;;;22.40;11.13;;;;;;;;;;6259498;28;20052;-61
2023/03/18 14:04:50;;;;;;;20.40;9.27;;;;;;;;;;6252647;28;20048;-61
2023/03/18 14:07:54;;;;;;;13.50;6.53;;;;;;;;;;6247197;28;20095;-60
2023/03/18 14:11:23;;;;;;;12.52;6.60;;;;;;;;;;6251844;28;20088;-60
2023/03/18 14:14:50;;;;;;;13.80;6.63;;;;;;;;;;6251322;28;20076;-60
2023/03/18 14:17:57;;;;;;;13.20;6.57;;;;;;;;;;6248171;28;20049;-61
2023/03/18 14:21:00;;;;;;;10.77;6.28;;;;;;;;;;6249666;28;20049;-61
2023/03/18 14:24:11;;;;;;;17.17;8.20;;;;;;;;;;6251598;28;20040;-61
2023/03/18 14:27:17;;;;;;;17.83;9.15;;;;;;;;;;6249371;28;20091;-60
2023/03/18 14:30:30;;;;;;;23.02;10.57;;;;;;;;;;6249313;28;20072;-61
2023/03/18 14:33:33;;;;;;;24.45;11.85;;;;;;;;;;6249422;28;20474;-61
2023/03/18 14:36:39;;;;;;;14.18;7.78;;;;;;;;;;6249318;28;20049;-61
2023/03/18 14:39:45;;;;;;;14.55;7.47;;;;;;;;;;6250772;28;20110;-61
2023/03/18 14:43:00;;;;;;;13.02;6.57;;;;;;;;;;6248107;28;20131;-61
2023/03/18 14:46:05;;;;;;;17.40;8.43;;;;;;;;;;6249096;28;20049;-60
2023/03/18 14:49:25;;;;;;;19.33;9.50;;;;;;;;;;6249634;28;20147;-61
2023/03/18 14:52:33;;;;;;;23.10;13.00;;;;;;;;;;6250827;28;20044;-61
2023/03/18 14:55:35;;;;;;;29.10;17.15;;;;;;;;;;6247088;28;20463;-61
2023/03/18 14:58:36;;;;;;;19.52;10.15;;;;;;;;;;6250801;28;20037;-61
2023/03/18 15:01:39;;;;;;;45.15;24.50;;;;;;;;;;6249575;28;20048;-61
2023/03/18 15:04:53;;;;;;;86.75;52.72;;;;;;;;;;6248192;28;20496;-61
2023/03/18 15:07:53;;;;;;;30.48;13.52;;;;;;;;;;6247112;28;20071;-60
2023/03/18 15:10:55;;;;;;;27.85;18.08;;;;;;;;;;6249202;28;20049;-61
2023/03/18 15:13:56;;;;;;;20.87;9.23;;;;;;;;;;6250362;28;20067;-61
2023/03/18 15:17:10;;;;;;;14.40;6.40;;;;;;;;;;6246838;28;20056;-61
2023/03/18 15:20:11;;;;;;;20.13;7.05;;;;;;;;;;6249869;28;20104;-61
2023/03/18 15:23:13;;;;;;;92.45;49.75;;;;;;;;;;6249565;28;20533;-61
2023/03/18 15:26:22;;;;;;;25.97;13.23;;;;;;;;;;6247484;28;20049;-61
2023/03/18 15:29:26;;;;;;;22.90;11.10;;;;;;;;;;6249149;28;20056;-61
2023/03/18 15:32:43;;;;;;;61.15;32.28;;;;;;;;;;6248363;28;20059;-61
2023/03/18 15:35:44;;;;;;;51.58;28.45;;;;;;;;;;6245389;28;20049;-61
2023/03/18 15:38:47;;;;;;;44.83;30.30;;;;;;;;;;6246909;28;20084;-61
2023/03/18 15:41:56;;;;;;;25.13;11.63;;;;;;;;;;6250184;28;20103;-61
2023/03/18 15:44:59;;;;;;;111.40;44.90;;;;;;;;;;6248021;28;20064;-60
2023/03/18 15:48:16;;;;;;;49.42;25.70;;;;;;;;;;6246439;28;20088;-60
2023/03/18 15:51:44;;;;;;;68.47;30.67;;;;;;;;;;6248914;28;20045;-61
2023/03/18 15:54:47;;;;;;;44.88;26.13;;;;;;;;;;6249501;28;20075;-61
2023/03/18 15:57:47;;;;;;;32.45;18.08;;;;;;;;;;6246877;28;20045;-61
2023/03/18 16:00:49;;;;;;;67.35;31.25;;;;;;;;;;6247180;28;20064;-61
2023/03/18 16:03:50;;;;;;;89.05;46.30;;;;;;;;;;6249628;28;20040;-60
2023/03/18 16:06:53;;;;;;;34.35;18.92;;;;;;;;;;6246905;28;20397;-61
2023/03/18 16:09:54;;;;;;;24.48;14.98;;;;;;;;;;6247369;28;20058;-61
2023/03/18 16:13:00;;;;;;;22.83;16.13;;;;;;;;;;6248941;28;20051;-61
2023/03/18 16:16:02;;;;;;;26.88;19.85;;;;;;;;;;6248234;28;20110;-62
2023/03/18 16:19:09;;;;;;;;;;;;;;;;;;6248775;28;20140;-61
2023/03/18 16:22:11;;;;;;;65.80;35.50;;;;;;;;;;6248925;28;19939;-61
2023/03/18 16:25:12;;;;;;;42.85;20.50;;;;;;;;;;6256293;28;20534;-61
2023/03/18 16:28:25;;;;;;;56.40;23.77;;;;;;;;;;6254406;28;20053;-62
2023/03/18 16:31:26;;;;;;;83.25;25.75;;;;;;;;;;6256272;28;20049;-61
2023/03/18 16:34:27;;;;;;;89.13;30.65;;;;;;;;;;6255985;28;20172;-61
2023/03/18 16:37:28;;;;;;;39.00;16.13;;;;;;;;;;6252881;28;20047;-61
2023/03/18 16:40:30;;;;;;;34.75;16.05;;;;;;;;;;6255273;28;20480;-61
2023/03/18 16:43:31;;;;;;;45.83;20.15;;;;;;;;;;6258309;28;20481;-61
2023/03/18 16:46:37;;;;;;;48.85;19.63;;;;;;;;;;6258286;28;20069;-60
2023/03/18 16:49:39;;;;;;;31.67;15.38;;;;;;;;;;6259833;28;20058;-61
2023/03/18 16:52:41;;;;;;;27.73;14.40;;;;;;;;;;6257980;28;20049;-61
2023/03/18 16:55:43;;;;;;;55.50;23.55;;;;;;;;;;6257939;28;20743;-61
2023/03/18 16:58:44;;;;;;;69.35;27.88;;;;;;;;;;6259520;28;20061;-61
2023/03/18 17:01:45;;;;;;;68.07;26.73;;;;;;;;;;6260643;28;20104;-67
2023/03/18 17:04:45;;;;;;;109.18;37.20;;;;;;;;;;6260082;28;20061;-60
2023/03/18 17:07:47;;;;;;;154.68;46.20;;;;;;;;;;6257697;28;20115;-61
2023/03/18 17:10:51;;;;;;;59.22;22.40;;;;;;;;;;6280421;28;20076;-61
2023/03/18 17:13:52;;;;;;;108.15;35.30;;;;;;;;;;6259164;28;20048;-61
2023/03/18 17:16:53;;;;;;;141.60;43.08;;;;;;;;;;6258284;28;20045;-61
2023/03/18 17:19:54;;;;;;;143.18;47.47;;;;;;;;;;6259282;28;20095;-61
2023/03/18 17:22:55;;;;;;;159.85;50.28;;;;;;;;;;6255569;28;20057;-61
2023/03/18 17:25:58;;;;;;;84.70;28.08;;;;;;;;;;6254936;28;20856;-61
2023/03/18 17:28:59;;;;;;;80.65;29.38;;;;;;;;;;6259831;28;20053;-61
2023/03/18 17:32:00;;;;;;;104.40;35.78;;;;;;;;;;6259446;28;20392;-61
2023/03/18 17:35:01;;;;;;;118.63;42.58;;;;;;;;;;6259233;28;20118;-61
2023/03/18 17:38:01;;;;;;;94.07;35.30;;;;;;;;;;6257210;28;20056;-61
2023/03/18 17:41:09;;;;;;;151.88;47.85;;;;;;;;;;6260403;28;20052;-61
2023/03/18 17:44:22;;;;;;;136.23;45.83;;;;;;;;;;6257416;28;20049;-62
2023/03/18 17:47:23;;;;;;;116.43;39.88;;;;;;;;;;6256513;28;20077;-61
2023/03/18 17:50:24;;;;;;;104.18;37.53;;;;;;;;;;6259638;28;20055;-61
2023/03/18 17:53:39;;;;;;;103.78;48.35;;;;;;;;;;6258357;28;20051;-60
2023/03/18 17:56:40;;;;;;;63.33;29.27;;;;;;;;;;6255410;28;20057;-59
2023/03/18 17:59:41;;;;;;;68.75;32.53;;;;;;;;;;6259328;28;20095;-70